createdAt,value
2022-11-28T00:01:49.632Z,96284.75
2022-11-28T00:06:07.051Z,96280.03
2022-11-28T00:10:19.614Z,96277.50
2022-11-28T00:14:31.925Z,96270.16
2022-11-28T00:18:45.030Z,96253.88
2022-11-28T00:22:57.286Z,96236.09
2022-11-28T00:27:09.643Z,96241.13
2022-11-28T00:31:25.069Z,96246.63
2022-11-28T00:35:37.419Z,96242.19
2022-11-28T00:39:49.803Z,96253.00
2022-11-28T00:44:02.459Z,96242.47
2022-11-28T00:48:14.712Z,96243.25
2022-11-28T00:52:26.971Z,96250.63
2022-11-28T00:56:40.771Z,96252.34
2022-11-28T01:00:53.150Z,96233.34
2022-11-28T01:05:05.892Z,96243.25
2022-11-28T01:09:23.108Z,96240.19
2022-11-28T01:13:35.345Z,96223.47
2022-11-28T01:17:47.629Z,96217.59
2022-11-28T01:21:59.901Z,96211.28
2022-11-28T01:26:17.209Z,96212.66
2022-11-28T01:30:29.515Z,96214.16
2022-11-28T01:34:42.013Z,96205.03
2022-11-28T01:38:54.880Z,96210.13
2022-11-28T01:43:07.171Z,96190.72
2022-11-28T01:47:25.446Z,96189.81
2022-11-28T01:51:42.948Z,96189.31
2022-11-28T01:56:09.676Z,96190.13
2022-11-28T02:00:22.810Z,96190.38
2022-11-28T02:04:35.398Z,96179.56
2022-11-28T02:08:54.232Z,96183.53
2022-11-28T02:13:18.464Z,96205.72
2022-11-28T02:17:45.131Z,96212.41
2022-11-28T02:22:32.928Z,96219.06
2022-11-28T02:27:29.390Z,96211.16
2022-11-28T02:32:00.548Z,96206.38
2022-11-28T02:36:19.752Z,96193.94
2022-11-28T02:40:58.263Z,96182.38
2022-11-28T02:45:20.726Z,96169.94
2022-11-28T02:49:52.556Z,96162.13
2022-11-28T02:54:07.179Z,96145.78
2022-11-28T02:58:19.595Z,96137.44
2022-11-28T03:02:33.990Z,96138.47
2022-11-28T03:06:53.004Z,96142.78
2022-11-28T03:11:16.418Z,96155.22
2022-11-28T03:16:14.345Z,96130.47
2022-11-28T03:21:02.049Z,96138.06
2022-11-28T03:25:36.188Z,96147.44
2022-11-28T03:29:55.427Z,96157.16
2022-11-28T03:34:11.436Z,96138.66
2022-11-28T03:38:29.392Z,96131.28
2022-11-28T03:42:50.267Z,96117.03
2022-11-28T03:47:05.701Z,96123.81
2022-11-28T03:51:41.253Z,96098.84
2022-11-28T03:56:15.557Z,96094.28
2022-11-28T04:00:28.148Z,96080.03
2022-11-28T04:04:49.515Z,96089.66
2022-11-28T04:09:18.567Z,96081.00
2022-11-28T04:13:38.102Z,96081.75
2022-11-28T04:18:14.307Z,96076.53
2022-11-28T04:22:41.870Z,96077.75
2022-11-28T04:27:03.533Z,96067.13
2022-11-28T04:31:18.749Z,96074.44
2022-11-28T04:35:34.605Z,96042.00
2022-11-28T04:39:49.871Z,96051.41
2022-11-28T04:44:10.971Z,96063.94
2022-11-28T04:48:23.868Z,96081.38
2022-11-28T04:52:52.719Z,96082.94
2022-11-28T04:57:30.591Z,96072.69
2022-11-28T05:01:52.165Z,96075.56
2022-11-28T05:06:04.780Z,96056.09
2022-11-28T05:10:17.862Z,96067.81
2022-11-28T05:14:30.230Z,96053.09
2022-11-28T05:18:42.623Z,96023.56
2022-11-28T05:22:54.932Z,96079.09
2022-11-28T05:27:08.509Z,96112.00
2022-11-28T05:31:22.397Z,96115.41
2022-11-28T05:35:34.754Z,96103.44
2022-11-28T05:39:47.068Z,96098.84
2022-11-28T05:44:00.740Z,96103.88
2022-11-28T05:48:13.084Z,96098.00
2022-11-28T05:52:25.466Z,96101.06
2022-11-28T05:56:42.210Z,96089.09
2022-11-28T06:01:20.026Z,96082.78
2022-11-28T06:05:42.896Z,96068.91
2022-11-28T06:09:56.578Z,96086.41
2022-11-28T06:14:08.990Z,96069.09
2022-11-28T06:18:21.283Z,96062.84
2022-11-28T06:22:33.955Z,96049.41
2022-11-28T06:26:46.422Z,96040.00
2022-11-28T06:30:58.687Z,96056.81
2022-11-28T06:35:11.031Z,96030.50
2022-11-28T06:39:23.351Z,96044.78
2022-11-28T06:43:39.641Z,96048.69
2022-11-28T06:47:51.932Z,96047.66
2022-11-28T06:52:04.283Z,96039.94
2022-11-28T06:56:19.306Z,96046.53
2022-11-28T07:00:31.991Z,96034.78
2022-11-28T07:04:44.270Z,96030.34
2022-11-28T07:08:59.080Z,96037.72
2022-11-28T07:13:11.343Z,96032.03
2022-11-28T07:17:23.860Z,96041.19
2022-11-28T07:21:36.283Z,96031.59
2022-11-28T07:25:48.592Z,96039.28
2022-11-28T07:30:00.869Z,96052.09
2022-11-28T07:34:13.590Z,96061.84
2022-11-28T07:38:25.856Z,96057.44
2022-11-28T07:42:38.263Z,96048.78
2022-11-28T07:46:50.660Z,96047.50
2022-11-28T07:51:08.861Z,96038.97
2022-11-28T07:55:21.145Z,96020.22
2022-11-28T07:59:33.529Z,96004.19
2022-11-28T08:03:46.633Z,96001.13
2022-11-28T08:07:58.937Z,96002.53
2022-11-28T08:12:12.099Z,96014.34
2022-11-28T08:16:26.546Z,96021.34
2022-11-28T08:20:38.919Z,96014.84
2022-11-28T08:24:51.230Z,96031.00
2022-11-28T08:29:04.545Z,96026.13
2022-11-28T08:33:16.820Z,96028.13
2022-11-28T08:37:29.709Z,96053.63
2022-11-28T08:41:42.193Z,96052.97
2022-11-28T08:45:54.509Z,96052.84
2022-11-28T08:50:07.846Z,96034.16
2022-11-28T08:54:26.709Z,96044.06
2022-11-28T08:58:39.317Z,96021.34
2022-11-28T09:02:51.600Z,96022.59
2022-11-28T09:07:04.500Z,96047.97
2022-11-28T09:11:20.485Z,96041.34
2022-11-28T09:15:33.583Z,96042.00
2022-11-28T09:19:45.855Z,96046.38
2022-11-28T09:23:58.176Z,96037.47
2022-11-28T09:28:10.484Z,96038.75
2022-11-28T09:32:22.810Z,96040.09
2022-11-28T09:36:35.075Z,96023.78
2022-11-28T09:40:53.804Z,96025.44
2022-11-28T09:45:12.644Z,96025.09
2022-11-28T09:49:38.479Z,96019.38
2022-11-28T09:54:06.848Z,96025.56
2022-11-28T09:58:32.043Z,96030.88
2022-11-28T10:03:01.796Z,96023.41
2022-11-28T10:07:29.086Z,96028.63
2022-11-28T10:12:14.936Z,96022.59
2022-11-28T10:16:52.532Z,96019.56
2022-11-28T10:21:23.991Z,96021.38
2022-11-28T10:25:51.464Z,96016.19
2022-11-28T10:30:08.883Z,96022.59
2022-11-28T10:34:33.369Z,96026.59
2022-11-28T10:38:45.733Z,96019.69
2022-11-28T10:43:19.100Z,96020.19
2022-11-28T10:47:52.497Z,96008.50
2022-11-28T10:52:09.910Z,96010.41
2022-11-28T10:56:34.296Z,96010.66
2022-11-28T11:00:50.211Z,96022.19
2022-11-28T11:05:02.903Z,96010.81
2022-11-28T11:09:15.480Z,96006.25
2022-11-28T11:13:33.927Z,95996.22
2022-11-28T11:17:46.487Z,96005.31
2022-11-28T11:22:19.926Z,96002.25
2022-11-28T11:26:40.076Z,96012.59
2022-11-28T11:31:00.006Z,96010.97
2022-11-28T11:35:20.948Z,96000.34
2022-11-28T11:39:33.264Z,96011.81
2022-11-28T11:43:45.566Z,96010.34
2022-11-28T11:48:05.006Z,96005.13
2022-11-28T11:52:27.589Z,96004.38
2022-11-28T11:56:45.375Z,95997.28
2022-11-28T12:01:00.446Z,95995.13
2022-11-28T12:05:17.396Z,95980.78
2022-11-28T12:09:39.073Z,95987.41
2022-11-28T12:13:52.112Z,95987.69
2022-11-28T12:18:13.366Z,95979.06
2022-11-28T12:22:35.296Z,95979.25
2022-11-28T12:26:54.730Z,95980.56
2022-11-28T12:31:45.464Z,95982.44
2022-11-28T12:36:24.690Z,95991.69
2022-11-28T12:40:44.847Z,95978.13
2022-11-28T12:45:19.612Z,95991.22
2022-11-28T12:50:15.061Z,95987.66
2022-11-28T12:54:39.293Z,95989.59
2022-11-28T12:59:14.635Z,95985.50
2022-11-28T13:03:42.313Z,95992.19
2022-11-28T13:08:24.022Z,95996.59
2022-11-28T13:12:51.764Z,95981.34
2022-11-28T13:17:28.801Z,95976.75
2022-11-28T13:21:51.001Z,95980.69
2022-11-28T13:26:16.248Z,95982.75
2022-11-28T13:30:33.457Z,95979.56
2022-11-28T13:34:46.865Z,95981.97
2022-11-28T13:39:16.966Z,95985.28
2022-11-28T13:43:54.173Z,95982.66
2022-11-28T13:53:12.608Z,95980.28
2022-11-28T13:57:29.949Z,95981.03
2022-11-28T14:01:48.322Z,95975.69
2022-11-28T14:06:04.524Z,95976.09
2022-11-28T14:10:56.519Z,95977.59
2022-11-28T14:15:47.777Z,95981.72
2022-11-28T14:20:17.628Z,95972.72
2022-11-28T14:24:52.555Z,95974.13
2022-11-28T14:29:18.873Z,95975.94
2022-11-28T14:33:38.942Z,95961.81
2022-11-28T14:37:54.467Z,95960.00
2022-11-28T14:42:06.738Z,95966.38
2022-11-28T14:46:25.398Z,95975.00
2022-11-28T14:50:37.645Z,95966.91
2022-11-28T14:54:51.903Z,95972.09
2022-11-28T14:59:05.514Z,95973.97
2022-11-28T15:03:27.111Z,95976.34
2022-11-28T15:07:51.453Z,95973.69
2022-11-28T15:12:18.310Z,95971.75
2022-11-28T15:16:32.771Z,95979.09
2022-11-28T15:20:52.013Z,95965.56
2022-11-28T15:25:04.349Z,95977.41
2022-11-28T15:29:22.270Z,95973.50
2022-11-28T15:33:35.199Z,95975.72
2022-11-28T15:37:54.630Z,95968.25
2022-11-28T15:42:18.076Z,95969.84
2022-11-28T15:46:34.014Z,95975.66
2022-11-28T15:50:51.132Z,95968.13
2022-11-28T15:55:03.858Z,95966.09
2022-11-28T15:59:16.177Z,95966.44
2022-11-28T16:03:31.841Z,95966.56
2022-11-28T16:07:45.132Z,95962.66
2022-11-28T16:11:57.815Z,95965.03
2022-11-28T16:16:15.631Z,95967.78
2022-11-28T16:20:33.943Z,95967.00
2022-11-28T16:24:56.830Z,95965.47
2022-11-28T16:29:09.064Z,95962.25
2022-11-28T16:33:34.880Z,95967.53
2022-11-28T16:37:47.717Z,95962.28
2022-11-28T16:42:12.890Z,95959.63
2022-11-28T16:46:30.900Z,95970.38
2022-11-28T16:51:08.487Z,95953.19
2022-11-28T16:55:29.694Z,95968.72
2022-11-28T16:59:43.652Z,95963.47
2022-11-28T17:03:58.491Z,95962.16
2022-11-28T17:08:14.175Z,95955.91
2022-11-28T17:12:33.144Z,95949.88
2022-11-28T17:16:46.082Z,95946.06
2022-11-28T17:20:58.392Z,95951.75
2022-11-28T17:25:21.544Z,95942.63
2022-11-28T17:29:44.477Z,95945.47
2022-11-28T17:33:56.971Z,95949.22
2022-11-28T17:38:09.961Z,95954.44
2022-11-28T17:42:24.646Z,95956.56
2022-11-28T17:46:37.216Z,95967.19
2022-11-28T17:50:51.334Z,95963.03
2022-11-28T17:55:07.216Z,95963.81
2022-11-28T17:59:25.166Z,95969.69
2022-11-28T18:03:37.683Z,95969.94
2022-11-28T18:07:50.392Z,95964.91
2022-11-28T18:12:02.804Z,95968.06
2022-11-28T18:16:17.694Z,95972.56
2022-11-28T18:20:30.295Z,95966.09
2022-11-28T18:24:42.558Z,95973.56
2022-11-28T18:28:55.576Z,95971.03
2022-11-28T18:33:07.858Z,95964.38
2022-11-28T18:37:20.163Z,95955.91
2022-11-28T18:41:33.308Z,95965.25
2022-11-28T18:45:45.926Z,95957.56
2022-11-28T18:49:58.271Z,95966.75
2022-11-28T18:54:11.861Z,95968.50
2022-11-28T18:58:26.282Z,95967.31
2022-11-28T19:02:38.638Z,95960.94
2022-11-28T19:06:50.964Z,95962.72
2022-11-28T19:11:11.487Z,95977.06
2022-11-28T19:15:23.785Z,95974.75
2022-11-28T19:19:38.206Z,95975.75
2022-11-28T19:23:52.192Z,95973.22
2022-11-28T19:28:04.866Z,95975.75
2022-11-28T19:32:17.754Z,95983.06
2022-11-28T19:36:32.572Z,95979.00
2022-11-28T19:40:44.852Z,95985.72
2022-11-28T19:44:57.115Z,95988.00
2022-11-28T19:49:15.068Z,95986.56
2022-11-28T19:53:29.876Z,95990.59
2022-11-28T19:57:42.332Z,95994.13
2022-11-28T20:01:54.747Z,95992.56
2022-11-28T20:06:17.835Z,95991.59
2022-11-28T20:10:30.289Z,95994.19
2022-11-28T20:14:42.597Z,95997.78
2022-11-28T20:18:54.867Z,95998.59
2022-11-28T20:23:07.144Z,96008.97
2022-11-28T20:27:19.423Z,96007.88
2022-11-28T20:31:35.333Z,96013.97
2022-11-28T20:35:47.657Z,96013.34
2022-11-28T20:40:00.003Z,96006.88
2022-11-28T20:44:12.338Z,96014.53
2022-11-28T20:48:24.626Z,96009.69
2022-11-28T20:52:36.867Z,96016.72
2022-11-28T20:57:19.869Z,96015.81
2022-11-28T21:01:27.431Z,96010.16
2022-11-28T21:05:39.727Z,96007.88
2022-11-28T21:09:52.020Z,96016.19
2022-11-28T21:14:05.804Z,96013.88
2022-11-28T21:18:18.567Z,96012.88
2022-11-28T21:22:31.589Z,96016.47
2022-11-28T21:26:49.626Z,96006.28
2022-11-28T21:31:07.610Z,96006.38
2022-11-28T21:35:19.981Z,96010.91
2022-11-28T21:39:32.245Z,96012.00
2022-11-28T21:43:44.554Z,96004.47
2022-11-28T21:47:56.824Z,96005.47
2022-11-28T21:52:10.235Z,96003.50
2022-11-28T21:56:22.807Z,96005.13
2022-11-28T22:00:52.814Z,96011.91
2022-11-28T22:05:06.603Z,96016.94
2022-11-28T22:09:18.882Z,96016.53
2022-11-28T22:13:32.175Z,96020.78
2022-11-28T22:17:44.473Z,96015.41
2022-11-28T22:21:56.757Z,96024.56
2022-11-28T22:26:10.106Z,96018.53
2022-11-28T22:30:22.439Z,96017.09
2022-11-28T22:34:40.383Z,96026.41
2022-11-28T22:38:58.538Z,96023.41
2022-11-28T22:43:10.831Z,96011.09
2022-11-28T22:47:23.152Z,96010.41
2022-11-28T22:51:37.777Z,96012.97
2022-11-28T22:55:50.079Z,96023.00
2022-11-28T23:00:02.387Z,96024.97
2022-11-28T23:04:14.727Z,96014.00
2022-11-28T23:08:30.524Z,96016.41
2022-11-28T23:12:42.983Z,96020.69
2022-11-28T23:16:55.298Z,96010.94
2022-11-28T23:21:07.659Z,96006.09
2022-11-28T23:25:19.955Z,96011.75
2022-11-28T23:29:32.330Z,96006.88
2022-11-28T23:33:45.435Z,96012.34
2022-11-28T23:37:57.736Z,96009.16
2022-11-28T23:42:10.021Z,96017.81
2022-11-28T23:46:29.861Z,96011.78
2022-11-28T23:50:42.138Z,96016.59
2022-11-28T23:54:54.399Z,96018.50
2022-11-28T23:59:08.536Z,96014.78
